Time;durP1;ratioP1;P1;durP2;ratioP2;P2;SDS_P1;SDS_P2;PMS_P1;PMS_P2;Temp;Humidity;BMP_temperature;BMP_pressure;BME280_temperature;BME280_humidity;BME280_pressure;Samples;Min_cycle;Max_cycle;Signal;HPM_P1;HPM_P2
2022/04/16 00:03:13;;;;;;;9.30;7.75;;;;;;;;;;10423114;28;20049;-70
2022/04/16 00:08:16;;;;;;;8.68;7.70;;;;;;;;;;10419314;28;20099;-70
2022/04/16 00:13:19;;;;;;;18.73;9.15;;;;;;;;;;10436913;28;20075;-69
2022/04/16 00:18:23;;;;;;;14.95;9.95;;;;;;;;;;10435693;28;20045;-70
2022/04/16 00:23:26;;;;;;;16.45;10.18;;;;;;;;;;10436666;28;20073;-69
2022/04/16 00:28:28;;;;;;;13.75;9.10;;;;;;;;;;10435525;28;20141;-69
2022/04/16 00:33:33;;;;;;;11.73;8.32;;;;;;;;;;10437317;28;20275;-69
2022/04/16 00:38:36;;;;;;;11.02;9.30;;;;;;;;;;10436020;28;20305;-68
2022/04/16 00:43:38;;;;;;;14.20;8.63;;;;;;;;;;10431297;28;20318;-70
2022/04/16 00:48:42;;;;;;;11.85;8.43;;;;;;;;;;10435471;28;20056;-70
2022/04/16 00:53:45;;;;;;;10.23;7.95;;;;;;;;;;10435721;28;20083;-70
2022/04/16 00:58:47;;;;;;;11.93;8.18;;;;;;;;;;10434649;28;20264;-70
2022/04/16 01:03:50;;;;;;;10.10;7.38;;;;;;;;;;10428100;28;20095;-70
2022/04/16 01:08:54;;;;;;;11.90;8.43;;;;;;;;;;10433716;28;20080;-69
2022/04/16 01:13:57;;;;;;;14.73;7.88;;;;;;;;;;10433645;28;20064;-69
2022/04/16 01:19:01;;;;;;;13.77;8.15;;;;;;;;;;10432594;28;20069;-71
2022/04/16 01:24:06;;;;;;;10.68;7.57;;;;;;;;;;10433459;28;20088;-70
2022/04/16 01:29:09;;;;;;;12.20;8.13;;;;;;;;;;10432696;28;20125;-70
2022/04/16 01:34:14;;;;;;;16.55;7.93;;;;;;;;;;10432623;28;20049;-70
2022/04/16 01:39:18;;;;;;;8.35;6.88;;;;;;;;;;10423115;28;20113;-70
2022/04/16 01:44:21;;;;;;;10.05;6.70;;;;;;;;;;10399000;28;20073;-69
2022/04/16 01:49:24;;;;;;;8.98;6.40;;;;;;;;;;10432407;28;20041;-69
2022/04/16 01:54:28;;;;;;;7.88;5.82;;;;;;;;;;10430976;28;20037;-69
2022/04/16 01:59:30;;;;;;;5.80;5.20;;;;;;;;;;10432283;28;20038;-70
2022/04/16 02:04:32;;;;;;;8.77;5.78;;;;;;;;;;10431619;28;20240;-70
2022/04/16 02:09:36;;;;;;;8.65;5.03;;;;;;;;;;10431070;28;20037;-69
2022/04/16 02:14:38;;;;;;;10.35;5.80;;;;;;;;;;10430999;28;20045;-70
2022/04/16 02:19:41;;;;;;;12.07;5.38;;;;;;;;;;10430745;28;20045;-70
2022/04/16 02:24:46;;;;;;;8.63;5.65;;;;;;;;;;10430747;28;20069;-69
2022/04/16 02:29:48;;;;;;;8.27;4.87;;;;;;;;;;10430910;28;20041;-69
2022/04/16 02:34:52;;;;;;;9.85;5.00;;;;;;;;;;10431752;28;20410;-69
2022/04/16 02:39:55;;;;;;;8.52;5.70;;;;;;;;;;10431047;28;20087;-70
2022/04/16 02:50:19;;;;;;;9.18;4.80;;;;;;;;;;10445784;28;20060;-70
2022/04/16 02:55:22;;;;;;;10.70;5.55;;;;;;;;;;10432295;28;20099;-70
2022/04/16 03:00:26;;;;;;;8.50;5.40;;;;;;;;;;10432542;28;20042;-69
2022/04/16 03:05:28;;;;;;;9.25;4.57;;;;;;;;;;10430278;28;20041;-69
2022/04/16 03:10:32;;;;;;;7.57;5.07;;;;;;;;;;10431518;28;20045;-69
2022/04/16 03:20:54;;;;;;;12.15;5.93;;;;;;;;;;10418884;28;20356;-69
2022/04/16 03:26:00;;;;;;;9.05;4.97;;;;;;;;;;10431207;28;20073;-69
2022/04/16 03:31:02;;;;;;;8.98;5.60;;;;;;;;;;10451126;28;20037;-69
2022/04/16 03:36:05;;;;;;;13.35;5.97;;;;;;;;;;10414053;28;20046;-69
2022/04/16 03:41:09;;;;;;;12.88;6.45;;;;;;;;;;10408122;28;20041;-69
2022/04/16 03:46:12;;;;;;;12.57;5.78;;;;;;;;;;10438518;28;20049;-69
2022/04/16 03:51:15;;;;;;;8.73;5.57;;;;;;;;;;10438015;28;20343;-69
2022/04/16 04:01:38;;;;;;;6.50;5.40;;;;;;;;;;10451948;28;20041;-70
2022/04/16 04:06:41;;;;;;;7.57;5.80;;;;;;;;;;10437988;28;20115;-70
2022/04/16 04:11:45;;;;;;;9.10;6.25;;;;;;;;;;10437713;28;20056;-70
2022/04/16 04:16:48;;;;;;;7.78;7.07;;;;;;;;;;10431663;28;20079;-70
2022/04/16 04:21:50;;;;;;;10.15;6.85;;;;;;;;;;10437238;28;20061;-71
2022/04/16 04:26:56;;;;;;;7.90;7.20;;;;;;;;;;10437285;28;20398;-70
2022/04/16 04:31:58;;;;;;;14.65;13.38;;;;;;;;;;10436053;28;20061;-70
2022/04/16 04:37:01;;;;;;;24.90;23.00;;;;;;;;;;10437353;28;20045;-71
2022/04/16 04:42:05;;;;;;;15.50;14.40;;;;;;;;;;10432812;28;20087;-71
2022/04/16 04:47:07;;;;;;;16.20;14.85;;;;;;;;;;10404296;28;20052;-71
2022/04/16 04:52:10;;;;;;;16.02;14.43;;;;;;;;;;10433647;28;20076;-70
2022/04/16 04:57:14;;;;;;;9.82;8.55;;;;;;;;;;10434520;28;20414;-70
2022/04/16 05:02:16;;;;;;;4.93;4.53;;;;;;;;;;10436117;28;20095;-69
2022/04/16 05:07:18;;;;;;;4.78;3.30;;;;;;;;;;10435225;28;20352;-69
2022/04/16 05:12:22;;;;;;;3.35;2.22;;;;;;;;;;10429138;28;20045;-70
2022/04/16 05:17:24;;;;;;;4.13;2.65;;;;;;;;;;10434737;28;20053;-70
2022/04/16 05:22:26;;;;;;;4.03;2.72;;;;;;;;;;10434370;28;20072;-67
2022/04/16 05:27:31;;;;;;;2.55;2.00;;;;;;;;;;10439285;28;20053;-69
2022/04/16 05:32:37;;;;;;;4.82;2.10;;;;;;;;;;10434095;28;20049;-70
2022/04/16 05:37:39;;;;;;;3.15;1.92;;;;;;;;;;10439152;28;20317;-69
2022/04/16 05:42:44;;;;;;;6.73;2.13;;;;;;;;;;10435949;28;20205;-68
2022/04/16 05:47:46;;;;;;;4.20;2.40;;;;;;;;;;10436902;28;20236;-69
2022/04/16 05:52:52;;;;;;;6.28;3.15;;;;;;;;;;10436924;28;20092;-68
2022/04/16 05:58:16;;;;;;;8.95;4.18;;;;;;;;;;10437919;28;20263;-68
2022/04/16 06:03:19;;;;;;;3.58;2.40;;;;;;;;;;10437024;28;20324;-68
2022/04/16 06:08:21;;;;;;;5.32;3.00;;;;;;;;;;10438126;28;20232;-68
2022/04/16 06:13:25;;;;;;;4.78;2.28;;;;;;;;;;10436187;28;20044;-69
2022/04/16 06:18:28;;;;;;;2.38;1.75;;;;;;;;;;10436374;28;20051;-68
2022/04/16 06:23:31;;;;;;;2.95;2.03;;;;;;;;;;10435960;28;20324;-69
2022/04/16 06:28:35;;;;;;;3.35;2.40;;;;;;;;;;10434293;28;20174;-69
2022/04/16 06:33:37;;;;;;;3.70;2.10;;;;;;;;;;10437428;28;20056;-69
2022/04/16 06:38:39;;;;;;;3.35;2.05;;;;;;;;;;10436894;28;20045;-68
2022/04/16 06:43:44;;;;;;;3.80;1.90;;;;;;;;;;10435776;28;20061;-69
2022/04/16 06:48:46;;;;;;;3.15;2.10;;;;;;;;;;10436631;28;20318;-69
2022/04/16 06:53:48;;;;;;;3.15;1.75;;;;;;;;;;10436115;28;20336;-68
2022/04/16 06:58:51;;;;;;;4.20;1.88;;;;;;;;;;10435911;28;20037;-68
2022/04/16 07:03:54;;;;;;;3.78;1.95;;;;;;;;;;10398382;28;20049;-69
2022/04/16 07:08:56;;;;;;;2.30;1.35;;;;;;;;;;10404911;28;20096;-69
2022/04/16 07:13:59;;;;;;;3.17;1.90;;;;;;;;;;10444116;28;20048;-68
2022/04/16 07:19:02;;;;;;;2.28;1.50;;;;;;;;;;10444586;28;20091;-70
2022/04/16 07:24:05;;;;;;;3.15;1.90;;;;;;;;;;10443244;28;20095;-68
2022/04/16 07:29:08;;;;;;;3.45;1.50;;;;;;;;;;10443737;28;20041;-68
2022/04/16 07:34:10;;;;;;;1.35;1.25;;;;;;;;;;10443113;28;20038;-68
2022/04/16 07:39:14;;;;;;;2.55;1.25;;;;;;;;;;10444279;28;20049;-69
2022/04/16 07:44:19;;;;;;;3.03;1.20;;;;;;;;;;10442809;28;20057;-70
2022/04/16 07:49:21;;;;;;;2.75;1.48;;;;;;;;;;10443266;28;20063;-69
2022/04/16 07:54:23;;;;;;;2.60;1.55;;;;;;;;;;10442430;28;20044;-69
2022/04/16 07:59:26;;;;;;;1.93;1.20;;;;;;;;;;10442975;28;20068;-69
2022/04/16 08:04:29;;;;;;;3.40;0.95;;;;;;;;;;10441635;28;20049;-69
2022/04/16 08:09:30;;;;;;;;;;;;;;;;;;10442859;28;20076;-69
2022/04/16 08:14:34;;;;;;;2.13;1.27;;;;;;;;;;10441451;28;19917;-67
2022/04/16 08:19:37;;;;;;;2.63;1.48;;;;;;;;;;10442249;28;20053;-70
2022/04/16 08:24:42;;;;;;;1.17;0.98;;;;;;;;;;10441338;28;20047;-69
2022/04/16 08:29:46;;;;;;;2.50;2.03;;;;;;;;;;10442279;28;20435;-68
2022/04/16 08:34:48;;;;;;;2.42;1.30;;;;;;;;;;10440672;28;20346;-69
2022/04/16 08:39:50;;;;;;;2.97;1.20;;;;;;;;;;10441396;28;20041;-70
2022/04/16 08:44:55;;;;;;;1.08;0.90;;;;;;;;;;10440267;28;20049;-70
2022/04/16 08:49:58;;;;;;;1.20;0.90;;;;;;;;;;10440706;28;20037;-69
2022/04/16 08:55:01;;;;;;;0.98;0.93;;;;;;;;;;10439837;28;20041;-71
2022/04/16 09:00:07;;;;;;;1.30;0.80;;;;;;;;;;10440784;28;20240;-69
2022/04/16 09:05:10;;;;;;;1.15;0.90;;;;;;;;;;10453451;28;20051;-71
2022/04/16 09:10:13;;;;;;;3.65;0.80;;;;;;;;;;10439909;28;20049;-69
2022/04/16 09:15:17;;;;;;;0.80;0.50;;;;;;;;;;10438429;28;20037;-70
2022/04/16 09:20:20;;;;;;;3.45;0.90;;;;;;;;;;10439455;28;20045;-68
2022/04/16 09:25:22;;;;;;;2.22;0.70;;;;;;;;;;10437937;28;20059;-69
2022/04/16 09:30:28;;;;;;;1.13;0.70;;;;;;;;;;10439622;28;20053;-69
2022/04/16 09:35:33;;;;;;;2.83;0.90;;;;;;;;;;10436892;28;20362;-70
2022/04/16 09:40:37;;;;;;;9.77;1.35;;;;;;;;;;10438286;28;20045;-68
2022/04/16 09:45:42;;;;;;;4.30;1.48;;;;;;;;;;10438523;28;20331;-69
2022/04/16 09:50:45;;;;;;;3.60;1.30;;;;;;;;;;10438040;28;20057;-69
2022/04/16 09:55:47;;;;;;;1.80;1.55;;;;;;;;;;10437589;28;20042;-70
2022/04/16 10:00:51;;;;;;;1.80;1.48;;;;;;;;;;10438579;28;20060;-69
2022/04/16 10:05:55;;;;;;;8.67;2.10;;;;;;;;;;10437375;28;20053;-69
2022/04/16 10:10:58;;;;;;;4.37;2.83;;;;;;;;;;10437984;28;20228;-68
2022/04/16 10:16:08;;;;;;;3.85;2.83;;;;;;;;;;10435220;28;20294;-69
2022/04/16 10:21:16;;;;;;;3.22;2.67;;;;;;;;;;10434215;28;20045;-69
2022/04/16 10:26:19;;;;;;;5.97;2.88;;;;;;;;;;10436042;28;20049;-69
2022/04/16 10:31:24;;;;;;;2.40;2.20;;;;;;;;;;10436920;28;20053;-68
2022/04/16 10:36:27;;;;;;;1.90;1.80;;;;;;;;;;10436893;28;20116;-68
2022/04/16 10:41:30;;;;;;;6.00;2.38;;;;;;;;;;10434645;28;20462;-69
2022/04/16 10:46:44;;;;;;;11.80;2.10;;;;;;;;;;10436805;28;20052;-67
2022/04/16 10:51:50;;;;;;;6.35;2.03;;;;;;;;;;10435055;28;20347;-68
2022/04/16 10:56:53;;;;;;;5.40;1.98;;;;;;;;;;10435851;28;20049;-68
2022/04/16 11:01:58;;;;;;;2.50;2.00;;;;;;;;;;10433716;28;20049;-68
2022/04/16 11:07:00;;;;;;;9.48;2.13;;;;;;;;;;10437476;28;20086;-68
2022/04/16 11:12:07;;;;;;;3.25;2.00;;;;;;;;;;10435572;28;20350;-67
2022/04/16 11:17:14;;;;;;;3.65;2.17;;;;;;;;;;10450020;28;20374;-69
2022/04/16 11:22:16;;;;;;;13.57;3.17;;;;;;;;;;10435500;28;20375;-68
2022/04/16 11:38:03;;;;;;;21.83;2.70;;;;;;;;;;10448210;28;20041;-68
2022/04/16 11:43:07;;;;;;;7.57;2.20;;;;;;;;;;10434474;28;20053;-67
2022/04/16 11:48:11;;;;;;;29.63;2.97;;;;;;;;;;10436112;28;20056;-68
2022/04/16 11:53:13;;;;;;;4.45;2.08;;;;;;;;;;10442060;28;20100;-68
2022/04/16 11:58:16;;;;;;;12.18;2.13;;;;;;;;;;10442751;28;20045;-68
2022/04/16 12:03:19;;;;;;;6.35;1.90;;;;;;;;;;10442058;28;20044;-68
2022/04/16 12:08:21;;;;;;;4.03;1.90;;;;;;;;;;10443598;28;20055;-68
2022/04/16 12:13:23;;;;;;;25.08;3.40;;;;;;;;;;10442453;28;20044;-68
2022/04/16 12:18:35;;;;;;;18.85;3.38;;;;;;;;;;10443340;28;20050;-67
2022/04/16 12:23:38;;;;;;;2.00;1.90;;;;;;;;;;10455347;28;20105;-67
2022/04/16 12:28:43;;;;;;;21.40;3.00;;;;;;;;;;10442539;28;20347;-68
2022/04/16 12:33:47;;;;;;;20.90;2.33;;;;;;;;;;10440083;28;20045;-67
2022/04/16 12:38:49;;;;;;;22.38;3.25;;;;;;;;;;10441779;28;20045;-68
2022/04/16 12:43:52;;;;;;;9.00;2.28;;;;;;;;;;10441325;28;20275;-68
2022/04/16 12:48:55;;;;;;;4.53;2.10;;;;;;;;;;10440233;28;20171;-69
2022/04/16 12:53:57;;;;;;;42.00;4.53;;;;;;;;;;10441801;28;20044;-68
2022/04/16 12:58:59;;;;;;;3.13;1.80;;;;;;;;;;10440819;28;20041;-68
2022/04/16 13:04:04;;;;;;;6.95;1.70;;;;;;;;;;10439947;28;20037;-67
2022/04/16 13:09:06;;;;;;;21.17;3.85;;;;;;;;;;10440264;28;20047;-68
2022/04/16 13:14:08;;;;;;;3.65;2.03;;;;;;;;;;10440573;28;20049;-68
2022/04/16 13:19:12;;;;;;;8.35;1.80;;;;;;;;;;10439572;28;20050;-69
2022/04/16 13:24:15;;;;;;;10.20;2.45;;;;;;;;;;10439815;28;20049;-69
2022/04/16 13:29:18;;;;;;;7.22;2.40;;;;;;;;;;10438405;28;20045;-69
2022/04/16 13:34:21;;;;;;;11.93;2.20;;;;;;;;;;10440651;28;20041;-69
2022/04/16 13:44:45;;;;;;;4.68;2.03;;;;;;;;;;10439022;28;20064;-68
2022/04/16 13:49:49;;;;;;;7.90;1.70;;;;;;;;;;10438294;28;20045;-68
2022/04/16 13:54:51;;;;;;;23.35;3.10;;;;;;;;;;10438950;28;20029;-69
2022/04/16 13:59:53;;;;;;;28.08;3.17;;;;;;;;;;10437598;28;20059;-68
2022/04/16 14:10:16;;;;;;;4.20;1.77;;;;;;;;;;10438312;28;20107;-68
2022/04/16 14:15:18;;;;;;;6.82;1.80;;;;;;;;;;10438439;28;20232;-68
2022/04/16 14:20:22;;;;;;;17.33;2.80;;;;;;;;;;10437403;28;20120;-69
2022/04/16 14:25:24;;;;;;;45.85;3.63;;;;;;;;;;10439064;28;20209;-68
2022/04/16 14:30:30;;;;;;;17.45;2.20;;;;;;;;;;10437459;28;20053;-68
2022/04/16 14:35:34;;;;;;;6.50;2.43;;;;;;;;;;10437694;28;20328;-68
2022/04/16 14:40:36;;;;;;;9.23;2.00;;;;;;;;;;10437689;28;20057;-67
2022/04/16 14:45:40;;;;;;;11.57;2.03;;;;;;;;;;10437346;28;20161;-69
2022/04/16 14:50:44;;;;;;;8.68;1.63;;;;;;;;;;10436722;28;20079;-68
2022/04/16 14:55:48;;;;;;;10.82;1.90;;;;;;;;;;10438035;28;20340;-68
2022/04/16 15:00:50;;;;;;;2.20;1.70;;;;;;;;;;10436220;28;20052;-69
2022/04/16 15:05:54;;;;;;;14.38;2.03;;;;;;;;;;10437403;28;20038;-68
2022/04/16 15:10:56;;;;;;;9.60;2.40;;;;;;;;;;10436218;28;20041;-67
2022/04/16 15:15:58;;;;;;;5.30;1.75;;;;;;;;;;10437017;28;20053;-68
2022/04/16 15:21:05;;;;;;;3.27;1.60;;;;;;;;;;10436089;28;20285;-69
2022/04/16 15:26:09;;;;;;;3.75;1.90;;;;;;;;;;10441683;28;20232;-68
2022/04/16 15:31:23;;;;;;;2.30;2.10;;;;;;;;;;10444331;28;20277;-69
2022/04/16 15:36:29;;;;;;;;;;;;;;;;;;10444585;28;20061;-69
2022/04/16 15:41:32;;;;;;;9.68;2.58;;;;;;;;;;10443151;28;20223;-68
2022/04/16 15:46:34;;;;;;;14.60;2.70;;;;;;;;;;10445204;28;20113;-69
2022/04/16 15:51:38;;;;;;;13.65;2.08;;;;;;;;;;10443578;28;20037;-68
2022/04/16 15:56:40;;;;;;;8.13;2.88;;;;;;;;;;10444202;28;20241;-68
2022/04/16 16:01:42;;;;;;;4.90;2.20;;;;;;;;;;10443130;28;20167;-67
2022/04/16 16:06:45;;;;;;;4.65;2.28;;;;;;;;;;10444030;28;20266;-68
2022/04/16 16:11:48;;;;;;;14.15;2.80;;;;;;;;;;10442620;28;20332;-68
2022/04/16 16:16:51;;;;;;;19.55;2.17;;;;;;;;;;10444231;28;20240;-68
2022/04/16 16:21:55;;;;;;;25.15;2.75;;;;;;;;;;10440987;28;20367;-70
2022/04/16 16:26:58;;;;;;;10.98;2.70;;;;;;;;;;10442535;28;20042;-68
2022/04/16 16:32:00;;;;;;;5.45;2.72;;;;;;;;;;10442827;28;20041;-68
2022/04/16 16:37:04;;;;;;;8.75;2.40;;;;;;;;;;10443406;28;20271;-69
2022/04/16 16:42:07;;;;;;;2.65;2.10;;;;;;;;;;10439963;28;20085;-68
2022/04/16 16:47:09;;;;;;;7.25;2.28;;;;;;;;;;10442330;28;20061;-68
2022/04/16 16:52:13;;;;;;;7.05;2.30;;;;;;;;;;10441598;28;20252;-69
2022/04/16 16:57:17;;;;;;;2.70;1.90;;;;;;;;;;10441454;28;20033;-69
2022/04/16 17:07:40;;;;;;;10.93;2.33;;;;;;;;;;10442481;28;20059;-69
2022/04/16 17:12:42;;;;;;;3.80;2.38;;;;;;;;;;10439232;28;20143;-69
2022/04/16 17:23:06;;;;;;;2.60;2.03;;;;;;;;;;10441163;28;20057;-70
2022/04/16 17:28:09;;;;;;;3.78;1.88;;;;;;;;;;10440686;28;20049;-68
2022/04/16 17:33:11;;;;;;;3.80;1.95;;;;;;;;;;10439490;28;20050;-67
2022/04/16 17:38:15;;;;;;;4.07;2.63;;;;;;;;;;10440819;28;20232;-69
2022/04/16 17:43:19;;;;;;;3.80;2.45;;;;;;;;;;10439504;28;20260;-68
2022/04/16 17:48:25;;;;;;;6.80;2.70;;;;;;;;;;10439763;28;20271;-68
2022/04/16 17:53:29;;;;;;;3.42;2.40;;;;;;;;;;10412389;28;20041;-70
2022/04/16 17:58:31;;;;;;;2.80;2.50;;;;;;;;;;10399841;28;20054;-69
2022/04/16 18:03:33;;;;;;;2.83;2.63;;;;;;;;;;10439434;28;20056;-69
2022/04/16 18:08:41;;;;;;;2.55;2.35;;;;;;;;;;10438664;28;20321;-68
2022/04/16 18:13:43;;;;;;;5.53;2.53;;;;;;;;;;10439088;28;20045;-68
2022/04/16 18:18:46;;;;;;;7.18;3.17;;;;;;;;;;10437366;28;20117;-68
2022/04/16 18:23:50;;;;;;;7.55;3.65;;;;;;;;;;10438216;28;20083;-68
2022/04/16 18:28:53;;;;;;;7.53;3.20;;;;;;;;;;10437987;28;20218;-68
2022/04/16 18:33:56;;;;;;;6.20;3.30;;;;;;;;;;10438901;28;20038;-69
2022/04/16 18:39:00;;;;;;;3.72;2.60;;;;;;;;;;10437782;28;20075;-70
2022/04/16 18:44:04;;;;;;;4.43;2.90;;;;;;;;;;10438023;28;20118;-68
2022/04/16 18:49:06;;;;;;;3.15;2.85;;;;;;;;;;10437837;28;20033;-68
2022/04/16 18:54:09;;;;;;;3.50;3.17;;;;;;;;;;10438210;28;20044;-68
2022/04/16 18:59:12;;;;;;;5.88;3.75;;;;;;;;;;10440476;28;20321;-69
2022/04/16 19:09:35;;;;;;;4.85;3.35;;;;;;;;;;10459299;28;20029;-69
2022/04/16 19:14:39;;;;;;;11.95;3.65;;;;;;;;;;10445992;28;20037;-69
2022/04/16 19:19:45;;;;;;;5.43;4.28;;;;;;;;;;10444573;28;20052;-70
2022/04/16 19:24:48;;;;;;;4.50;3.58;;;;;;;;;;10459354;28;20041;-68
2022/04/16 19:29:51;;;;;;;9.07;3.58;;;;;;;;;;10445004;28;20053;-68
2022/04/16 19:34:53;;;;;;;9.57;4.97;;;;;;;;;;10446141;28;20093;-68
2022/04/16 19:39:57;;;;;;;7.07;4.05;;;;;;;;;;10444739;28;20047;-68
2022/04/16 19:45:00;;;;;;;6.80;3.78;;;;;;;;;;10444856;28;20057;-70
2022/04/16 19:50:06;;;;;;;5.38;3.42;;;;;;;;;;10444018;28;20092;-71
2022/04/16 19:55:10;;;;;;;6.97;3.88;;;;;;;;;;10445410;28;20112;-71
2022/04/16 20:00:13;;;;;;;5.40;3.50;;;;;;;;;;10444412;28;20041;-67
2022/04/16 20:05:16;;;;;;;9.45;3.65;;;;;;;;;;10445168;28;20057;-69
2022/04/16 20:15:39;;;;;;;6.35;3.20;;;;;;;;;;10456977;28;20049;-69
2022/04/16 20:20:41;;;;;;;7.03;3.70;;;;;;;;;;10443975;28;20083;-68
2022/04/16 20:25:46;;;;;;;8.73;3.92;;;;;;;;;;10443539;28;20050;-70
2022/04/16 20:30:48;;;;;;;4.65;3.92;;;;;;;;;;10444003;28;20358;-68
2022/04/16 20:35:51;;;;;;;4.82;3.70;;;;;;;;;;10442897;28;20321;-68
2022/04/16 20:46:14;;;;;;;16.92;6.80;;;;;;;;;;10455743;28;20287;-69
2022/04/16 20:56:38;;;;;;;28.77;12.18;;;;;;;;;;10440513;28;20048;-70
2022/04/16 21:01:40;;;;;;;20.55;7.88;;;;;;;;;;10442313;28;20087;-70
2022/04/16 21:06:43;;;;;;;16.38;7.20;;;;;;;;;;10440913;28;20048;-69
2022/04/16 21:11:46;;;;;;;15.80;7.70;;;;;;;;;;10407613;28;20064;-70
2022/04/16 21:16:48;;;;;;;12.07;5.93;;;;;;;;;;10439460;28;20037;-68
2022/04/16 21:21:50;;;;;;;18.48;6.75;;;;;;;;;;10440774;28;20108;-67
2022/04/16 21:26:56;;;;;;;15.32;7.30;;;;;;;;;;10439986;28;20049;-68
2022/04/16 21:31:58;;;;;;;113.40;38.30;;;;;;;;;;10440932;28;20099;-69
2022/04/16 21:37:00;;;;;;;11.35;5.82;;;;;;;;;;10440474;28;20049;-70
2022/04/16 21:42:04;;;;;;;17.95;8.70;;;;;;;;;;10439329;28;20271;-68
2022/04/16 21:47:07;;;;;;;18.15;10.38;;;;;;;;;;10440168;28;20320;-67
2022/04/16 21:52:09;;;;;;;20.73;11.13;;;;;;;;;;10439851;28;20225;-69
2022/04/16 21:57:16;;;;;;;17.25;9.60;;;;;;;;;;10439624;28;20045;-68
2022/04/16 22:02:18;;;;;;;20.10;10.90;;;;;;;;;;10439904;28;20049;-68
2022/04/16 22:07:21;;;;;;;29.30;11.30;;;;;;;;;;10439564;28;20328;-68
2022/04/16 22:12:25;;;;;;;22.38;12.10;;;;;;;;;;10439548;28;20041;-67
2022/04/16 22:17:27;;;;;;;21.80;11.45;;;;;;;;;;10438805;28;20041;-67
2022/04/16 22:22:29;;;;;;;18.70;10.95;;;;;;;;;;10438917;28;20202;-68
2022/04/16 22:27:33;;;;;;;20.52;10.43;;;;;;;;;;10438305;28;20045;-67
2022/04/16 22:32:38;;;;;;;16.35;8.20;;;;;;;;;;10437715;28;20045;-68
2022/04/16 22:43:14;;;;;;;11.15;7.28;;;;;;;;;;10440196;28;20054;-68
2022/04/16 22:48:16;;;;;;;15.15;7.85;;;;;;;;;;10451110;28;20038;-68
2022/04/16 22:53:20;;;;;;;16.35;8.82;;;;;;;;;;10437579;28;20104;-68
2022/04/16 22:58:24;;;;;;;17.17;9.25;;;;;;;;;;10437508;28;20205;-69
2022/04/16 23:03:26;;;;;;;18.10;8.60;;;;;;;;;;10437284;28;20060;-69
2022/04/16 23:08:29;;;;;;;15.70;9.13;;;;;;;;;;10437264;28;20075;-68
2022/04/16 23:13:32;;;;;;;23.60;10.35;;;;;;;;;;10437315;28;20271;-69
2022/04/16 23:18:35;;;;;;;22.90;11.85;;;;;;;;;;10437181;28;20064;-69
2022/04/16 23:23:37;;;;;;;24.80;11.48;;;;;;;;;;10436615;28;20079;-68
2022/04/16 23:28:41;;;;;;;22.52;12.02;;;;;;;;;;10436457;28;20335;-70
2022/04/16 23:33:43;;;;;;;21.58;11.85;;;;;;;;;;10436537;28;20050;-69
2022/04/16 23:38:48;;;;;;;21.17;12.77;;;;;;;;;;10436971;28;20065;-71
2022/04/16 23:46:54;;;;;;;28.10;12.15;;;;;;;;;;10436125;28;20068;-69
2022/04/16 23:49:14;;;;;;;27.48;13.52;;;;;;;;;;10444025;28;20041;-69
2022/04/16 23:54:17;;;;;;;32.45;14.40;;;;;;;;;;10443942;28;20049;-69
2022/04/16 23:59:20;;;;;;;28.35;14.57;;;;;;;;;;10443258;28;20355;-69
